Time;durP1;ratioP1;P1;durP2;ratioP2;P2;SDS_P1;SDS_P2;PMS_P1;PMS_P2;Temp;Humidity;BMP_temperature;BMP_pressure;BME280_temperature;BME280_humidity;BME280_pressure;Samples;Min_cycle;Max_cycle;Signal;HPM_P1;HPM_P2
2022/07/19 00:01:50;;;;;;;;;;;25.00;57.00;;;;;;5017943;28;19966;-76
2022/07/19 00:04:17;;;;;;;;;;;25.00;57.00;;;;;;5020325;28;19976;-76
2022/07/19 00:06:44;;;;;;;;;;;24.90;57.00;;;;;;5016188;28;19933;-76
2022/07/19 00:09:11;;;;;;;;;;;24.90;57.10;;;;;;5018663;28;20015;-76
2022/07/19 00:11:37;;;;;;;;;;;24.90;57.10;;;;;;5011979;28;19936;-75
2022/07/19 00:14:04;;;;;;;;;;;24.80;57.00;;;;;;5012771;28;20354;-75
2022/07/19 00:16:31;;;;;;;;;;;24.80;57.00;;;;;;5010331;28;19940;-75
2022/07/19 00:18:59;;;;;;;;;;;24.80;57.10;;;;;;5017408;28;19976;-76
2022/07/19 00:21:26;;;;;;;;;;;24.70;57.00;;;;;;5006946;28;19937;-75
2022/07/19 00:23:53;;;;;;;;;;;24.70;57.10;;;;;;5016052;28;19929;-75
2022/07/19 00:26:20;;;;;;;;;;;24.70;57.10;;;;;;5011338;28;19925;-75
2022/07/19 00:28:47;;;;;;;;;;;24.70;57.10;;;;;;5013803;28;19925;-75
2022/07/19 00:31:14;;;;;;;;;;;24.60;57.10;;;;;;5012718;28;20023;-75
2022/07/19 00:33:40;;;;;;;;;;;24.60;57.10;;;;;;5016795;28;19961;-75
2022/07/19 00:36:09;;;;;;;;;;;24.60;57.20;;;;;;5013943;28;20469;-77
2022/07/19 00:38:35;;;;;;;;;;;24.50;57.10;;;;;;5007147;28;20363;-75
2022/07/19 00:41:02;;;;;;;;;;;24.50;57.20;;;;;;5009204;28;19933;-75
2022/07/19 00:43:29;;;;;;;;;;;24.50;57.20;;;;;;5019089;28;20012;-76
2022/07/19 00:45:56;;;;;;;;;;;24.50;57.30;;;;;;5008524;28;19933;-76
2022/07/19 00:48:23;;;;;;;;;;;24.40;57.30;;;;;;5011357;28;20028;-75
2022/07/19 00:50:50;;;;;;;;;;;24.40;57.30;;;;;;5015288;28;19979;-75
2022/07/19 00:53:19;;;;;;;;;;;24.40;57.40;;;;;;5017406;28;20067;-75
2022/07/19 00:55:47;;;;;;;;;;;24.30;57.40;;;;;;5014145;28;19933;-75
2022/07/19 00:58:14;;;;;;;;;;;24.30;57.40;;;;;;5015093;28;19925;-76
2022/07/19 01:00:41;;;;;;;;;;;24.20;57.30;;;;;;5024608;28;20268;-75
2022/07/19 01:03:09;;;;;;;;;;;24.20;57.40;;;;;;5010235;28;19948;-75
2022/07/19 01:05:35;;;;;;;;;;;24.20;57.50;;;;;;5014637;28;20016;-75
2022/07/19 01:08:02;;;;;;;;;;;24.20;57.60;;;;;;5012410;28;19937;-75
2022/07/19 01:10:31;;;;;;;;;;;24.10;57.60;;;;;;5013030;28;19932;-74
2022/07/19 01:12:57;;;;;;;;;;;24.10;57.50;;;;;;5017819;28;19929;-75
2022/07/19 01:15:26;;;;;;;;;;;24.10;57.60;;;;;;5013212;28;19976;-75
2022/07/19 01:17:53;;;;;;;;;;;24.00;57.60;;;;;;5011662;28;19926;-75
2022/07/19 01:20:20;;;;;;;;;;;;;;;;;;5002126;28;19936;-75
2022/07/19 01:22:48;;;;;;;;;;;23.90;57.10;;;;;;5011272;22;19925;-72
2022/07/19 01:25:16;;;;;;;;;;;23.90;57.60;;;;;;4995634;28;19934;-73
2022/07/19 01:27:44;;;;;;;;;;;23.90;57.50;;;;;;4989962;28;19937;-72
2022/07/19 01:30:11;;;;;;;;;;;23.90;57.70;;;;;;4985001;28;19948;-72
2022/07/19 01:32:38;;;;;;;;;;;23.80;57.90;;;;;;4974003;28;20029;-74
2022/07/19 01:35:06;;;;;;;;;;;23.80;57.80;;;;;;4973109;28;19995;-73
2022/07/19 01:37:33;;;;;;;;;;;23.80;57.90;;;;;;4977003;28;19982;-74
2022/07/19 01:40:01;;;;;;;;;;;23.70;57.80;;;;;;4976781;28;20028;-73
2022/07/19 01:42:28;;;;;;;;;;;23.70;58.00;;;;;;4970766;28;20463;-74
2022/07/19 01:44:55;;;;;;;;;;;23.70;58.00;;;;;;4976860;28;19933;-73
2022/07/19 01:47:21;;;;;;;;;;;23.60;57.90;;;;;;4971642;28;19986;-73
2022/07/19 01:49:49;;;;;;;;;;;23.60;58.00;;;;;;4974857;28;20299;-73
2022/07/19 01:52:15;;;;;;;;;;;23.50;58.00;;;;;;4973340;28;20020;-73
2022/07/19 01:54:42;;;;;;;;;;;23.50;58.00;;;;;;4973955;28;19959;-72
2022/07/19 01:57:11;;;;;;;;;;;23.50;58.10;;;;;;4976226;28;19972;-73
2022/07/19 01:59:38;;;;;;;;;;;23.40;58.00;;;;;;4975588;28;19933;-73
2022/07/19 02:02:04;;;;;;;;;;;23.40;58.10;;;;;;4972831;28;19926;-73
2022/07/19 02:04:31;;;;;;;;;;;23.40;58.20;;;;;;4971464;28;19926;-72
2022/07/19 02:06:58;;;;;;;;;;;23.40;58.30;;;;;;4970549;28;20070;-73
2022/07/19 02:09:25;;;;;;;;;;;23.30;58.30;;;;;;4972522;28;19926;-73
2022/07/19 02:11:52;;;;;;;;;;;23.30;58.30;;;;;;4975939;28;20479;-73
2022/07/19 02:14:21;;;;;;;;;;;23.20;58.20;;;;;;4974581;28;19979;-73
2022/07/19 02:16:48;;;;;;;;;;;23.20;58.30;;;;;;4970302;28;19941;-72
2022/07/19 02:19:15;;;;;;;;;;;23.20;58.50;;;;;;4973576;28;20757;-73
2022/07/19 02:21:42;;;;;;;;;;;23.10;58.40;;;;;;4974593;28;20427;-73
2022/07/19 02:24:09;;;;;;;;;;;23.10;58.20;;;;;;4975260;28;20017;-73
2022/07/19 02:26:36;;;;;;;;;;;23.00;58.10;;;;;;4972400;28;20816;-72
2022/07/19 02:29:03;;;;;;;;;;;23.00;58.10;;;;;;4972537;28;20024;-72
2022/07/19 02:31:31;;;;;;;;;;;22.90;58.30;;;;;;4974142;28;19930;-73
2022/07/19 02:33:58;;;;;;;;;;;22.90;58.40;;;;;;4996888;28;19948;-73
2022/07/19 02:36:25;;;;;;;;;;;22.90;58.50;;;;;;4973224;28;20020;-73
2022/07/19 02:38:52;;;;;;;;;;;22.80;58.40;;;;;;4973193;28;20874;-73
2022/07/19 02:41:19;;;;;;;;;;;22.80;58.80;;;;;;4972930;28;19926;-73
2022/07/19 02:43:46;;;;;;;;;;;22.80;58.90;;;;;;4972871;28;20346;-73
2022/07/19 02:46:13;;;;;;;;;;;22.70;58.80;;;;;;4969945;28;19937;-73
2022/07/19 02:48:41;;;;;;;;;;;22.70;58.70;;;;;;4974447;28;19934;-73
2022/07/19 02:51:10;;;;;;;;;;;22.60;58.50;;;;;;4976951;28;20343;-73
2022/07/19 02:53:37;;;;;;;;;;;22.60;58.50;;;;;;4973716;28;20025;-73
2022/07/19 02:56:04;;;;;;;;;;;22.50;58.70;;;;;;4973555;28;19934;-73
2022/07/19 02:58:31;;;;;;;;;;;22.50;58.90;;;;;;4974598;28;20315;-74
2022/07/19 03:00:58;;;;;;;;;;;22.40;59.00;;;;;;4976366;28;20294;-73
2022/07/19 03:06:11;;;;;;;;;;;22.40;58.90;;;;;;4983818;28;19921;-73
2022/07/19 03:08:38;;;;;;;;;;;22.40;58.90;;;;;;4976754;28;20033;-74
2022/07/19 03:11:05;;;;;;;;;;;22.30;59.10;;;;;;4978951;28;20213;-73
2022/07/19 03:13:32;;;;;;;;;;;22.30;59.30;;;;;;4978793;28;20012;-73
2022/07/19 03:15:58;;;;;;;;;;;22.20;59.20;;;;;;4977988;28;19969;-73
2022/07/19 03:18:25;;;;;;;;;;;22.20;59.30;;;;;;4975618;28;20030;-73
2022/07/19 03:20:52;;;;;;;;;;;22.20;59.50;;;;;;4972823;28;19934;-72
2022/07/19 03:23:20;;;;;;;;;;;22.10;59.40;;;;;;4975749;28;19926;-73
2022/07/19 03:25:47;;;;;;;;;;;22.10;59.40;;;;;;4979216;28;19944;-74
2022/07/19 03:28:14;;;;;;;;;;;22.00;59.50;;;;;;4974966;28;20006;-73
2022/07/19 03:30:41;;;;;;;;;;;22.00;59.60;;;;;;4974404;28;19930;-73
2022/07/19 03:33:08;;;;;;;;;;;22.00;59.50;;;;;;4996047;28;20067;-73
2022/07/19 03:35:35;;;;;;;;;;;21.90;59.40;;;;;;4998829;28;21441;-73
2022/07/19 03:38:03;;;;;;;;;;;21.90;59.40;;;;;;4978172;28;20399;-73
2022/07/19 03:40:31;;;;;;;;;;;21.90;59.50;;;;;;4976571;28;20445;-73
2022/07/19 03:42:58;;;;;;;;;;;21.80;59.50;;;;;;4979891;28;20581;-73
2022/07/19 03:45:25;;;;;;;;;;;21.80;59.40;;;;;;4972683;28;19934;-72
2022/07/19 03:47:52;;;;;;;;;;;21.80;59.50;;;;;;4979815;28;19934;-73
2022/07/19 03:50:19;;;;;;;;;;;21.70;59.60;;;;;;4983678;28;19929;-73
2022/07/19 03:52:45;;;;;;;;;;;21.70;59.70;;;;;;4976128;28;19933;-73
2022/07/19 03:55:12;;;;;;;;;;;21.60;59.70;;;;;;4984370;28;19933;-73
2022/07/19 03:57:40;;;;;;;;;;;21.60;59.90;;;;;;4973856;28;19936;-73
2022/07/19 04:00:08;;;;;;;;;;;21.60;59.90;;;;;;4969825;28;19926;-73
2022/07/19 04:02:38;;;;;;;;;;;;;;;;;;4975478;28;19930;-73
2022/07/19 04:05:06;;;;;;;;;;;21.50;59.30;;;;;;4981590;28;20009;-74
2022/07/19 04:07:33;;;;;;;;;;;21.50;60.00;;;;;;4984595;28;19934;-72
2022/07/19 04:10:00;;;;;;;;;;;21.40;60.10;;;;;;4974013;28;19985;-73
2022/07/19 04:12:27;;;;;;;;;;;21.40;60.30;;;;;;4973565;28;19991;-72
2022/07/19 04:14:55;;;;;;;;;;;21.40;60.30;;;;;;4978303;28;20396;-73
2022/07/19 04:17:23;;;;;;;;;;;21.30;60.30;;;;;;4975333;28;19925;-73
2022/07/19 04:19:50;;;;;;;;;;;21.30;60.20;;;;;;4989389;28;20570;-73
2022/07/19 04:22:17;;;;;;;;;;;21.30;60.50;;;;;;4978342;28;20426;-74
2022/07/19 04:24:44;;;;;;;;;;;21.20;60.40;;;;;;4977181;28;19972;-73
2022/07/19 04:27:10;;;;;;;;;;;21.20;60.30;;;;;;4983150;28;20346;-73
2022/07/19 04:29:37;;;;;;;;;;;21.20;60.40;;;;;;4981029;28;19976;-73
2022/07/19 04:32:06;;;;;;;;;;;21.10;60.80;;;;;;4982738;28;20373;-74
2022/07/19 04:34:33;;;;;;;;;;;21.10;60.60;;;;;;4984720;28;20030;-74
2022/07/19 04:37:00;;;;;;;;;;;21.00;60.70;;;;;;4979866;28;19984;-73
2022/07/19 04:39:27;;;;;;;;;;;21.00;61.00;;;;;;4979100;28;19926;-73
2022/07/19 04:41:53;;;;;;;;;;;21.00;61.10;;;;;;4978704;28;19934;-73
2022/07/19 04:44:20;;;;;;;;;;;20.90;60.60;;;;;;4979800;28;19933;-73
2022/07/19 04:46:47;;;;;;;;;;;20.90;60.80;;;;;;4976680;28;19937;-74
2022/07/19 04:49:15;;;;;;;;;;;20.90;61.00;;;;;;4994849;28;20426;-73
2022/07/19 04:51:42;;;;;;;;;;;20.80;60.90;;;;;;4974815;28;19947;-73
2022/07/19 04:54:09;;;;;;;;;;;20.80;61.10;;;;;;4988885;28;19965;-74
2022/07/19 04:56:36;;;;;;;;;;;20.80;61.10;;;;;;4975535;28;20012;-73
2022/07/19 04:59:03;;;;;;;;;;;20.80;61.30;;;;;;4980334;28;19933;-74
2022/07/19 05:01:30;;;;;;;;;;;20.70;61.50;;;;;;4975110;28;19930;-75
2022/07/19 05:03:57;;;;;;;;;;;20.70;61.60;;;;;;4975442;28;20022;-74
2022/07/19 05:06:25;;;;;;;;;;;20.70;61.50;;;;;;4979887;28;19987;-75
2022/07/19 05:08:52;;;;;;;;;;;20.60;61.60;;;;;;4974929;28;19926;-74
2022/07/19 05:11:19;;;;;;;;;;;20.50;61.80;;;;;;4977893;28;19930;-74
2022/07/19 05:13:46;;;;;;;;;;;20.50;61.60;;;;;;4977325;28;20383;-74
2022/07/19 05:16:13;;;;;;;;;;;20.40;60.80;;;;;;5062927;28;20388;-74
2022/07/19 05:18:40;;;;;;;;;;;20.40;61.00;;;;;;4982193;28;20032;-74
2022/07/19 05:21:07;;;;;;;;;;;20.30;61.40;;;;;;4974965;28;19930;-74
2022/07/19 05:23:37;;;;;;;;;;;20.30;61.70;;;;;;4987203;28;20404;-73
2022/07/19 05:26:04;;;;;;;;;;;20.30;62.20;;;;;;4974914;28;19932;-73
2022/07/19 05:28:30;;;;;;;;;;;20.30;62.80;;;;;;4978047;28;20411;-72
2022/07/19 05:30:58;;;;;;;;;;;20.30;63.20;;;;;;4992787;28;19926;-75
2022/07/19 05:33:24;;;;;;;;;;;20.30;63.50;;;;;;4983548;28;20292;-73
2022/07/19 05:35:51;;;;;;;;;;;20.30;63.50;;;;;;4983370;28;21576;-73
2022/07/19 05:38:18;;;;;;;;;;;20.30;63.40;;;;;;4977257;28;19949;-73
2022/07/19 05:40:47;;;;;;;;;;;20.30;63.40;;;;;;4976281;28;19961;-74
2022/07/19 05:43:15;;;;;;;;;;;20.30;63.50;;;;;;4978925;28;19930;-74
2022/07/19 05:45:42;;;;;;;;;;;20.30;63.50;;;;;;4977669;28;19965;-74
2022/07/19 05:48:09;;;;;;;;;;;20.30;63.40;;;;;;4978030;28;19965;-73
2022/07/19 05:50:36;;;;;;;;;;;20.30;63.40;;;;;;4978079;28;20007;-75
2022/07/19 05:53:02;;;;;;;;;;;20.30;63.60;;;;;;4972020;28;19969;-74
2022/07/19 05:55:29;;;;;;;;;;;20.40;63.60;;;;;;4978004;28;20377;-74
2022/07/19 05:57:57;;;;;;;;;;;20.40;63.60;;;;;;4980807;28;19932;-74
2022/07/19 06:00:24;;;;;;;;;;;20.40;63.90;;;;;;4980307;28;19926;-73
2022/07/19 06:02:51;;;;;;;;;;;20.50;64.10;;;;;;4982255;28;20445;-74
2022/07/19 06:05:18;;;;;;;;;;;20.50;64.10;;;;;;4984833;28;19934;-73
2022/07/19 06:07:45;;;;;;;;;;;20.50;64.20;;;;;;4984648;28;19926;-73
2022/07/19 06:10:11;;;;;;;;;;;20.50;64.30;;;;;;5004068;28;19971;-72
2022/07/19 06:12:38;;;;;;;;;;;20.50;64.40;;;;;;4979786;28;19948;-73
2022/07/19 06:15:07;;;;;;;;;;;20.60;64.60;;;;;;4981171;28;19934;-73
2022/07/19 06:17:34;;;;;;;;;;;20.60;64.70;;;;;;4979387;28;20029;-73
2022/07/19 06:20:01;;;;;;;;;;;20.60;64.50;;;;;;4980038;28;20358;-73
2022/07/19 06:22:30;;;;;;;;;;;20.60;64.60;;;;;;4977804;28;19930;-73
2022/07/19 06:24:56;;;;;;;;;;;20.60;64.60;;;;;;4978502;28;19983;-74
2022/07/19 06:27:23;;;;;;;;;;;20.60;64.50;;;;;;4980390;28;19926;-74
2022/07/19 06:29:50;;;;;;;;;;;20.60;64.50;;;;;;4984917;28;20366;-74
2022/07/19 06:32:19;;;;;;;;;;;20.70;64.70;;;;;;4979429;28;19987;-73
2022/07/19 06:34:46;;;;;;;;;;;20.70;64.80;;;;;;4979808;28;20310;-74
2022/07/19 06:37:13;;;;;;;;;;;20.70;64.70;;;;;;4983041;28;19969;-74
2022/07/19 06:39:40;;;;;;;;;;;20.70;64.70;;;;;;4984666;28;19937;-74
2022/07/19 06:42:06;;;;;;;;;;;20.70;64.90;;;;;;4980021;28;19930;-74
2022/07/19 06:44:35;;;;;;;;;;;20.70;65.00;;;;;;4984517;28;19932;-73
2022/07/19 06:47:02;;;;;;;;;;;20.80;65.00;;;;;;4983557;28;20392;-74
2022/07/19 06:49:30;;;;;;;;;;;20.80;65.10;;;;;;4983513;28;20036;-73
2022/07/19 06:51:57;;;;;;;;;;;20.80;65.30;;;;;;4984811;28;20527;-73
2022/07/19 06:54:23;;;;;;;;;;;20.80;65.40;;;;;;4988435;28;19988;-74
2022/07/19 06:56:50;;;;;;;;;;;20.90;65.60;;;;;;4984923;28;20208;-74
2022/07/19 06:59:17;;;;;;;;;;;21.00;65.80;;;;;;4975389;28;19929;-74
2022/07/19 07:01:44;;;;;;;;;;;21.00;65.80;;;;;;4978591;28;19969;-74
2022/07/19 07:04:11;;;;;;;;;;;21.00;65.80;;;;;;4985976;28;19937;-73
2022/07/19 07:06:40;;;;;;;;;;;21.00;65.80;;;;;;4984527;28;20467;-75
2022/07/19 07:09:06;;;;;;;;;;;21.10;66.10;;;;;;4982978;28;19925;-74
2022/07/19 07:11:33;;;;;;;;;;;21.20;66.20;;;;;;4985135;28;20410;-74
2022/07/19 07:14:02;;;;;;;;;;;21.20;66.20;;;;;;4983418;28;19929;-74
2022/07/19 07:16:28;;;;;;;;;;;21.30;66.30;;;;;;4985893;28;19962;-74
2022/07/19 07:18:55;;;;;;;;;;;21.30;66.30;;;;;;4980443;28;20424;-74
2022/07/19 07:21:22;;;;;;;;;;;21.40;66.30;;;;;;4982639;28;20021;-73
2022/07/19 07:23:50;;;;;;;;;;;21.30;66.20;;;;;;4980857;28;20422;-74
2022/07/19 07:26:17;;;;;;;;;;;21.40;66.20;;;;;;4984454;28;19996;-74
2022/07/19 07:28:45;;;;;;;;;;;21.40;66.20;;;;;;4978297;28;19926;-74
2022/07/19 07:31:13;;;;;;;;;;;21.50;66.20;;;;;;4981281;28;20025;-76
2022/07/19 07:33:39;;;;;;;;;;;21.50;66.10;;;;;;4986639;28;19934;-77
2022/07/19 07:36:06;;;;;;;;;;;21.50;66.10;;;;;;4983160;28;19930;-76
2022/07/19 07:38:33;;;;;;;;;;;21.60;66.10;;;;;;4981693;28;20036;-75
2022/07/19 07:43:30;;;;;;;;;;;21.60;66.00;;;;;;4945544;22;19972;-74
2022/07/19 07:45:57;;;;;;;;;;;21.70;65.90;;;;;;4963530;28;19973;-73
2022/07/19 07:48:24;;;;;;;;;;;21.70;65.70;;;;;;4968411;28;20212;-73
2022/07/19 07:50:50;;;;;;;;;;;21.70;65.80;;;;;;4932600;28;20013;-74
2022/07/19 07:53:17;;;;;;;;;;;21.80;65.80;;;;;;4935615;28;19945;-74
2022/07/19 07:55:44;;;;;;;;;;;21.80;65.70;;;;;;4930923;28;20432;-74
2022/07/19 07:58:12;;;;;;;;;;;21.80;65.70;;;;;;4943190;28;19942;-74
2022/07/19 08:00:40;;;;;;;;;;;21.80;65.70;;;;;;4935009;28;19935;-74
2022/07/19 08:03:07;;;;;;;;;;;21.90;65.70;;;;;;4944132;28;19981;-74
2022/07/19 08:05:35;;;;;;;;;;;21.90;65.70;;;;;;4939132;28;19960;-74
2022/07/19 08:08:02;;;;;;;;;;;21.80;65.70;;;;;;4940877;28;19934;-74
2022/07/19 08:10:32;;;;;;;;;;;21.90;65.80;;;;;;4937212;28;20420;-71
2022/07/19 08:13:01;;;;;;;;;;;21.90;65.70;;;;;;4942090;28;19926;-74
2022/07/19 08:15:28;;;;;;;;;;;22.00;65.80;;;;;;4959078;28;19927;-75
2022/07/19 08:17:56;;;;;;;;;;;21.90;65.80;;;;;;4940151;28;19981;-75
2022/07/19 08:20:23;;;;;;;;;;;21.90;65.90;;;;;;4936834;28;19934;-73
2022/07/19 08:22:50;;;;;;;;;;;22.00;66.00;;;;;;4942111;28;20393;-74
2022/07/19 08:25:17;;;;;;;;;;;22.00;66.10;;;;;;4944325;28;19933;-75
2022/07/19 08:27:44;;;;;;;;;;;22.00;66.10;;;;;;4941767;28;19929;-73
2022/07/19 08:30:12;;;;;;;;;;;22.10;66.30;;;;;;4939906;28;19926;-73
2022/07/19 08:32:39;;;;;;;;;;;22.10;66.40;;;;;;4937561;28;20355;-74
2022/07/19 08:35:09;;;;;;;;;;;22.10;66.40;;;;;;4944828;28;19945;-74
2022/07/19 08:37:36;;;;;;;;;;;22.10;66.50;;;;;;4938156;28;19933;-74
2022/07/19 08:40:04;;;;;;;;;;;22.20;66.60;;;;;;4943850;28;19942;-73
2022/07/19 08:42:31;;;;;;;;;;;22.20;66.80;;;;;;4947692;28;20392;-74
2022/07/19 08:45:00;;;;;;;;;;;22.20;66.80;;;;;;4942986;28;19939;-76
2022/07/19 08:47:27;;;;;;;;;;;22.20;66.80;;;;;;4942913;28;20465;-75
2022/07/19 08:49:54;;;;;;;;;;;22.30;67.00;;;;;;4944171;28;19938;-75
2022/07/19 08:52:23;;;;;;;;;;;22.30;66.90;;;;;;4951016;28;20363;-75
2022/07/19 08:54:50;;;;;;;;;;;22.30;66.90;;;;;;4944518;28;19985;-76
2022/07/19 09:00:02;;;;;;;;;;;22.30;67.00;;;;;;4948020;28;19934;-74
2022/07/19 09:02:29;;;;;;;;;;;22.40;67.30;;;;;;4944688;28;19933;-75
2022/07/19 09:05:00;;;;;;;;;;;22.40;67.40;;;;;;4943924;28;19934;-75
2022/07/19 09:07:28;;;;;;;;;;;22.40;67.30;;;;;;4947274;28;20404;-77
2022/07/19 09:10:14;;;;;;;;;;;22.40;67.30;;;;;;4938124;28;19927;-75
2022/07/19 09:12:56;;;;;;;;;;;22.40;67.20;;;;;;4941909;28;20312;-75
2022/07/19 09:15:36;;;;;;;;;;;22.40;67.20;;;;;;4941679;28;20343;-75
2022/07/19 09:18:06;;;;;;;;;;;22.40;67.20;;;;;;4945333;28;21122;-75
2022/07/19 09:20:32;;;;;;;;;;;22.40;67.20;;;;;;4940419;28;19934;-75
2022/07/19 09:23:01;;;;;;;;;;;22.40;67.20;;;;;;4938749;28;20112;-75
2022/07/19 09:25:35;;;;;;;;;;;22.50;67.30;;;;;;4940406;28;19926;-76
2022/07/19 09:28:02;;;;;;;;;;;22.50;67.20;;;;;;4940244;28;19953;-75
2022/07/19 09:30:38;;;;;;;;;;;22.50;67.10;;;;;;4950169;28;20294;-75
2022/07/19 09:33:09;;;;;;;;;;;22.60;67.10;;;;;;4935824;28;19935;-75
2022/07/19 09:35:37;;;;;;;;;;;22.60;66.90;;;;;;4941039;28;19926;-75
2022/07/19 09:38:15;;;;;;;;;;;22.60;66.90;;;;;;4942674;28;20332;-75
2022/07/19 09:40:42;;;;;;;;;;;22.60;66.90;;;;;;4942557;28;19934;-75
2022/07/19 09:43:09;;;;;;;;;;;22.60;66.80;;;;;;4937882;28;20045;-74
2022/07/19 09:45:36;;;;;;;;;;;22.60;66.70;;;;;;4944216;28;19926;-75
2022/07/19 09:48:03;;;;;;;;;;;22.70;66.60;;;;;;4946103;28;19934;-74
2022/07/19 09:50:31;;;;;;;;;;;22.70;66.40;;;;;;4939718;28;20483;-75
2022/07/19 09:52:59;;;;;;;;;;;22.70;66.20;;;;;;4942652;28;19934;-75
2022/07/19 09:55:30;;;;;;;;;;;22.70;66.10;;;;;;4945010;28;20039;-74
2022/07/19 09:57:58;;;;;;;;;;;22.80;66.10;;;;;;4940794;28;19935;-75
2022/07/19 10:00:26;;;;;;;;;;;22.80;65.90;;;;;;4939206;28;19938;-74
2022/07/19 10:02:53;;;;;;;;;;;22.80;65.60;;;;;;4940194;28;19926;-76
2022/07/19 10:05:21;;;;;;;;;;;22.80;65.50;;;;;;4962986;28;19930;-77
2022/07/19 10:07:48;;;;;;;;;;;22.90;65.10;;;;;;4944531;28;19926;-76
2022/07/19 10:10:15;;;;;;;;;;;22.90;65.10;;;;;;4940066;28;19958;-75
2022/07/19 10:12:44;;;;;;;;;;;23.00;64.10;;;;;;4958792;28;19940;-75
2022/07/19 10:15:12;;;;;;;;;;;23.00;64.00;;;;;;4948360;28;19927;-77
2022/07/19 10:17:40;;;;;;;;;;;23.00;63.90;;;;;;4948484;28;20020;-76
2022/07/19 10:20:08;;;;;;;;;;;23.00;64.60;;;;;;4954619;28;19933;-77
2022/07/19 10:22:35;;;;;;;;;;;23.00;63.80;;;;;;4954868;28;19934;-76
2022/07/19 10:25:11;;;;;;;;;;;23.00;63.40;;;;;;4964016;28;19925;-76
2022/07/19 10:27:39;;;;;;;;;;;23.10;63.90;;;;;;4950380;28;20383;-76
2022/07/19 10:30:20;;;;;;;;;;;23.00;63.90;;;;;;4951398;28;19926;-76
2022/07/19 10:32:48;;;;;;;;;;;23.00;63.70;;;;;;4936360;28;20531;-76
2022/07/19 10:35:15;;;;;;;;;;;23.10;63.60;;;;;;4922567;28;19941;-76
2022/07/19 10:37:42;;;;;;;;;;;23.10;63.60;;;;;;4929105;28;20000;-76
2022/07/19 10:40:10;;;;;;;;;;;23.10;63.30;;;;;;4940294;28;19927;-76
2022/07/19 10:42:37;;;;;;;;;;;23.10;62.70;;;;;;4943629;28;19934;-77
2022/07/19 10:45:12;;;;;;;;;;;23.20;62.10;;;;;;4931848;28;19930;-75
2022/07/19 10:47:57;;;;;;;;;;;23.20;61.40;;;;;;4937257;28;19926;-75
2022/07/19 10:50:41;;;;;;;;;;;23.70;58.90;;;;;;4945076;28;19937;-75
2022/07/19 10:53:08;;;;;;;;;;;23.70;59.60;;;;;;4958719;28;19961;-75
2022/07/19 10:55:36;;;;;;;;;;;23.60;60.10;;;;;;4945704;28;19948;-75
2022/07/19 10:58:11;;;;;;;;;;;23.50;60.40;;;;;;4947583;28;19934;-75
2022/07/19 11:00:42;;;;;;;;;;;23.50;60.10;;;;;;4955464;28;19935;-75
2022/07/19 11:03:28;;;;;;;;;;;23.50;60.00;;;;;;4944359;28;19930;-75
2022/07/19 11:05:57;;;;;;;;;;;23.50;60.20;;;;;;4943888;28;19983;-75
2022/07/19 11:08:34;;;;;;;;;;;23.50;60.00;;;;;;4952509;28;19931;-75
2022/07/19 11:11:03;;;;;;;;;;;23.60;60.20;;;;;;4920841;28;19966;-75
2022/07/19 11:13:30;;;;;;;;;;;23.60;59.20;;;;;;4937569;28;19935;-75
2022/07/19 11:15:57;;;;;;;;;;;23.70;59.60;;;;;;4934781;28;19930;-75
2022/07/19 11:18:24;;;;;;;;;;;23.70;59.70;;;;;;4929701;28;19930;-75
2022/07/19 11:20:51;;;;;;;;;;;23.70;59.80;;;;;;4931246;28;19938;-75
2022/07/19 11:23:20;;;;;;;;;;;23.70;59.80;;;;;;4941634;28;19934;-75
2022/07/19 11:25:49;;;;;;;;;;;23.80;59.40;;;;;;4933380;28;19930;-75
2022/07/19 11:28:22;;;;;;;;;;;23.80;59.50;;;;;;4934085;28;20486;-75
2022/07/19 11:30:49;;;;;;;;;;;23.80;59.70;;;;;;4932550;28;19926;-76
2022/07/19 11:33:17;;;;;;;;;;;23.80;59.30;;;;;;4937551;28;20343;-76
2022/07/19 11:35:54;;;;;;;;;;;23.90;59.10;;;;;;4944898;28;19962;-76
2022/07/19 11:38:23;;;;;;;;;;;23.90;59.10;;;;;;4932592;28;19935;-77
2022/07/19 11:40:50;;;;;;;;;;;23.90;59.40;;;;;;4935275;28;19945;-76
2022/07/19 11:43:16;;;;;;;;;;;23.90;58.90;;;;;;4941052;28;19946;-76
2022/07/19 11:45:44;;;;;;;;;;;23.90;59.00;;;;;;4973827;28;19938;-77
2022/07/19 11:48:11;;;;;;;;;;;24.00;59.10;;;;;;4945851;28;20021;-77
2022/07/19 11:50:40;;;;;;;;;;;24.00;58.90;;;;;;4944497;28;19933;-77
2022/07/19 11:53:08;;;;;;;;;;;24.00;58.60;;;;;;4942383;28;19993;-77
2022/07/19 11:55:37;;;;;;;;;;;24.10;58.70;;;;;;4943085;28;19931;-77
2022/07/19 11:58:08;;;;;;;;;;;24.10;58.50;;;;;;4944837;28;19934;-77
2022/07/19 12:00:35;;;;;;;;;;;24.20;58.00;;;;;;4945905;28;19930;-77
2022/07/19 12:03:04;;;;;;;;;;;24.20;58.10;;;;;;4955082;28;19931;-77
2022/07/19 12:05:32;;;;;;;;;;;24.20;58.30;;;;;;4949246;28;19934;-77
2022/07/19 12:08:01;;;;;;;;;;;24.20;58.00;;;;;;4955683;28;19973;-77
2022/07/19 12:10:39;;;;;;;;;;;24.30;58.10;;;;;;4955236;28;19934;-76
2022/07/19 12:13:07;;;;;;;;;;;24.30;57.80;;;;;;4953675;28;20003;-76
2022/07/19 12:15:47;;;;;;;;;;;24.30;57.80;;;;;;4935298;28;20026;-77
2022/07/19 12:18:16;;;;;;;;;;;24.40;57.60;;;;;;4933687;28;19989;-76
2022/07/19 12:20:43;;;;;;;;;;;24.40;57.10;;;;;;4944905;28;19933;-78
2022/07/19 12:23:14;;;;;;;;;;;24.50;57.10;;;;;;4943349;28;19930;-77
2022/07/19 12:25:42;;;;;;;;;;;24.50;56.60;;;;;;4941221;28;20049;-77
2022/07/19 12:28:09;;;;;;;;;;;24.60;56.80;;;;;;4948902;28;20456;-77
2022/07/19 12:30:36;;;;;;;;;;;24.60;56.80;;;;;;4941179;28;19970;-77
2022/07/19 12:33:07;;;;;;;;;;;24.60;56.90;;;;;;4955161;28;19934;-77
2022/07/19 12:35:44;;;;;;;;;;;24.70;57.00;;;;;;4962061;28;19930;-77
2022/07/19 12:38:11;;;;;;;;;;;24.70;57.30;;;;;;4946915;28;19935;-77
2022/07/19 12:40:38;;;;;;;;;;;24.80;56.60;;;;;;4953740;28;20673;-77
2022/07/19 12:43:09;;;;;;;;;;;24.90;55.80;;;;;;4949259;28;20415;-77
2022/07/19 12:45:39;;;;;;;;;;;24.90;56.00;;;;;;4944871;28;20293;-77
2022/07/19 12:48:06;;;;;;;;;;;24.90;56.60;;;;;;4941455;28;20289;-77
2022/07/19 12:50:34;;;;;;;;;;;25.00;57.30;;;;;;4949360;28;20419;-77
2022/07/19 12:53:03;;;;;;;;;;;25.00;58.10;;;;;;4942345;28;20451;-78
2022/07/19 12:55:31;;;;;;;;;;;25.00;58.00;;;;;;4941730;28;20447;-78
2022/07/19 12:57:58;;;;;;;;;;;25.10;58.10;;;;;;4939822;28;20599;-77
2022/07/19 13:00:27;;;;;;;;;;;25.20;58.20;;;;;;4934300;28;19935;-77
2022/07/19 13:02:55;;;;;;;;;;;25.20;57.20;;;;;;4944451;28;19934;-76
2022/07/19 13:05:22;;;;;;;;;;;25.30;57.20;;;;;;4944650;28;19961;-76
2022/07/19 13:07:50;;;;;;;;;;;;;;;;;;4937978;28;19930;-77
2022/07/19 13:10:16;;;;;;;;;;;25.40;55.30;;;;;;4937147;28;20336;-77
2022/07/19 13:12:44;;;;;;;;;;;25.50;57.70;;;;;;4938530;28;19930;-77
2022/07/19 13:15:11;;;;;;;;;;;25.60;55.80;;;;;;4936852;28;20454;-77
2022/07/19 13:17:40;;;;;;;;;;;25.60;56.10;;;;;;4939544;28;19934;-77
2022/07/19 13:20:08;;;;;;;;;;;25.60;55.60;;;;;;4938544;28;19931;-76
2022/07/19 13:22:35;;;;;;;;;;;25.70;56.00;;;;;;4939389;28;19931;-77
2022/07/19 13:25:03;;;;;;;;;;;25.70;56.30;;;;;;4933481;28;21713;-77
2022/07/19 13:29:58;;;;;;;;;;;25.90;57.30;;;;;;5045760;22;20293;-77
2022/07/19 13:32:25;;;;;;;;;;;25.90;57.00;;;;;;5060233;28;19939;-77
2022/07/19 13:34:56;;;;;;;;;;;26.00;56.80;;;;;;5062215;28;19932;-76
2022/07/19 13:37:23;;;;;;;;;;;26.00;57.10;;;;;;5053589;28;19925;-76
2022/07/19 13:39:50;;;;;;;;;;;26.10;56.50;;;;;;5062037;28;20324;-78
2022/07/19 13:42:17;;;;;;;;;;;26.20;57.20;;;;;;5056438;28;20231;-76
2022/07/19 13:44:44;;;;;;;;;;;26.20;57.60;;;;;;5063273;28;20461;-77
2022/07/19 13:47:11;;;;;;;;;;;26.30;57.90;;;;;;5055835;28;19932;-76
2022/07/19 13:49:39;;;;;;;;;;;26.40;58.10;;;;;;5063299;28;19928;-76
2022/07/19 13:52:07;;;;;;;;;;;26.40;57.60;;;;;;5062293;28;19932;-76
2022/07/19 13:54:34;;;;;;;;;;;26.50;57.80;;;;;;5053477;28;19943;-74
2022/07/19 13:57:01;;;;;;;;;;;26.60;57.80;;;;;;5067633;28;19931;-76
2022/07/19 13:59:30;;;;;;;;;;;26.60;57.80;;;;;;5055128;28;19970;-77
2022/07/19 14:01:57;;;;;;;;;;;26.70;57.20;;;;;;5067556;28;19925;-76
2022/07/19 14:04:24;;;;;;;;;;;26.70;61.20;;;;;;5056746;28;20097;-77
2022/07/19 14:06:51;;;;;;;;;;;26.90;54.50;;;;;;5064949;28;20401;-77
2022/07/19 14:09:19;;;;;;;;;;;27.00;56.10;;;;;;5059668;28;19982;-76
2022/07/19 14:11:48;;;;;;;;;;;27.00;56.80;;;;;;5050214;28;20517;-78
2022/07/19 14:14:16;;;;;;;;;;;27.10;54.00;;;;;;5047662;28;19972;-77
2022/07/19 14:16:45;;;;;;;;;;;27.40;52.80;;;;;;5048155;28;19924;-77
2022/07/19 14:19:13;;;;;;;;;;;27.50;53.50;;;;;;5055722;28;19924;-77
2022/07/19 14:21:40;;;;;;;;;;;27.50;54.30;;;;;;5055310;28;19932;-78
2022/07/19 14:24:09;;;;;;;;;;;27.60;54.30;;;;;;5061207;28;19997;-77
2022/07/19 14:26:37;;;;;;;;;;;27.50;54.50;;;;;;5065248;28;19925;-78
2022/07/19 14:29:04;;;;;;;;;;;27.60;54.90;;;;;;5061557;28;20255;-78
2022/07/19 14:31:31;;;;;;;;;;;27.60;54.80;;;;;;5061824;28;20291;-76
2022/07/19 14:33:58;;;;;;;;;;;27.70;55.60;;;;;;5048126;28;21023;-76